Portada
METAR-TAF:

METAR-TAF

Aeroports :

Najran, Aràbia Saudita

latitud: 17-37N, longitud: 044-25E, altitud: 1212 m

Observació

L'informe es va fer fa 28 minuts, a les 01:00 UTC
Vent calma
Temperatura 30°C
Humitat 19%
Pressió 1010 hPa
Visibilitat: 7000 m

METAR: OENG 170100Z 00000KT 7000 NSC 30/04 Q1010 NOSIG

Hora: 04:28 (01:28 UTC)

Pronòstic

L'informe es va fer fa 2 hores i 28 minuts, a les 23:00 UTC
Pronòstic vàlid del 17 a les 00 UTC al 18 a les 06 UTC
Vent 12 kt del Nord-Oest
Visibilitat: 7000 m
Escasses núvols a una alçada de 3000 ft
Evolucionant progressivament
l' 17 a les 06 UTC al 17 a les 08 UTC
Vent 6 kt del Est/Nord-Est amb ràfegues de 16 kt
Temporalment
l' 17 a les 09 UTC al 17 a les 16 UTC
Visibilitat: 4000 m
Pols estès, torb alta de pols

TAF: OENG 162300Z 1700/1806 32012KT 7000 FEW030 BECMG 1706/1708 06006G16KT TEMPO 1709/1716 4000 DU BLDU

Observacions i pronòstics meteorològics de més de 4000 aeroports (METAR i TAF).

Les estacions disponibles són els punts grocs i vermells al mapa.

Posi el ratolí al punt desitjat per veure el nom de l'estació.

Feu clic per veure les observacions i els pronòstics meteorològics.

Per canviar el mapa: feu clic els botons verds amb una creu de color negre per apropar; al botó verd amb un guió per allunyar la imatge; o en les fletxes verdes per a mapes adjacents.


METAR-TAF: